THA658 VTBS-RKSI
Flight info
| Callsign | THA658 |
|---|---|
| Flight time | N/A |
| Altitude | 39000 |
| Route | LIPLI1E LIPLI Y16 BUTRA A1 PAPRA/K0906F390 A1 IKELA/N0486F410 DCT MORTU DCT NOBAD DCT ENVAR M750 ANLOT B1 APU A1 DRAKE Q11 WP900 L4 LIPLO Y741 ATOTI Y722 OLMEN OLMEN3C |
| Aircraft | A359/H-SDE2E3GHIJ3J4J5LM1ORWXY/LB1D1 |
Departure
| Time | 2026-05-05 07:03 |
|---|---|
| Airport | Suvarnabhumi Airport (VTBS) |
Arrival
| Time | N/A |
|---|---|
| Airport | Incheon International Airport (RKSI) |
| Time | Latitude | Longitude | Altitude | Speed | Heading |
|---|---|---|---|---|---|
| 2026-05-05 06:51 | 13.69052 | 100.75137 | 19 ft | 0 kts | 14° |
| 2026-05-05 06:52 | 13.69042 | 100.75135 | 38 ft | 4 kts | 19° |
| 2026-05-05 06:52 | 13.69018 | 100.75123 | 44 ft | 4 kts | 38° |
| 2026-05-05 06:53 | 13.68999 | 100.75103 | 24 ft | 4 kts | 62° |
| 2026-05-05 06:53 | 13.68990 | 100.75078 | 23 ft | 4 kts | 84° |
| 2026-05-05 06:53 | 13.68991 | 100.75050 | 23 ft | 4 kts | 101° |
| 2026-05-05 06:53 | 13.68993 | 100.75041 | 24 ft | 0 kts | 104° |
| 2026-05-05 06:56 | 13.68980 | 100.75087 | 21 ft | 14 kts | 106° |
| 2026-05-05 06:56 | 13.68910 | 100.75138 | 21 ft | 11 kts | 188° |
| 2026-05-05 06:57 | 13.68832 | 100.75120 | 24 ft | 12 kts | 194° |
| 2026-05-05 06:57 | 13.68744 | 100.75097 | 23 ft | 14 kts | 194° |
| 2026-05-05 06:57 | 13.68645 | 100.75072 | 23 ft | 15 kts | 194° |
| 2026-05-05 06:57 | 13.68604 | 100.75091 | 23 ft | 6 kts | 123° |
| 2026-05-05 06:58 | 13.68587 | 100.75131 | 21 ft | 7 kts | 106° |
| 2026-05-05 06:58 | 13.68573 | 100.75188 | 22 ft | 10 kts | 105° |
| 2026-05-05 06:58 | 13.68553 | 100.75263 | 19 ft | 12 kts | 105° |
| 2026-05-05 06:58 | 13.68532 | 100.75348 | 20 ft | 13 kts | 104° |
| 2026-05-05 06:59 | 13.68508 | 100.75443 | 20 ft | 15 kts | 104° |
| 2026-05-05 06:59 | 13.68478 | 100.75560 | 19 ft | 19 kts | 104° |
| 2026-05-05 06:59 | 13.68459 | 100.75681 | 23 ft | 20 kts | 83° |
| 2026-05-05 06:59 | 13.68520 | 100.75739 | 23 ft | 18 kts | 24° |
| 2026-05-05 07:00 | 13.68686 | 100.75786 | 22 ft | 19 kts | 15° |
| 2026-05-05 07:00 | 13.68819 | 100.75822 | 23 ft | 21 kts | 15° |
| 2026-05-05 07:00 | 13.68958 | 100.75860 | 22 ft | 22 kts | 15° |
| 2026-05-05 07:00 | 13.69107 | 100.75901 | 23 ft | 23 kts | 15° |
| 2026-05-05 07:01 | 13.69196 | 100.75939 | 22 ft | 14 kts | 47° |
| 2026-05-05 07:01 | 13.69199 | 100.75987 | 19 ft | 9 kts | 99° |
| 2026-05-05 07:01 | 13.69195 | 100.76008 | 18 ft | 0 kts | 100° |
| 2026-05-05 07:01 | 13.69194 | 100.76014 | 18 ft | 6 kts | 101° |
| 2026-05-05 07:02 | 13.69115 | 100.76084 | 21 ft | 25 kts | 177° |
| 2026-05-05 07:02 | 13.68837 | 100.76004 | 24 ft | 71 kts | 195° |
| 2026-05-05 07:02 | 13.67833 | 100.75754 | 18 ft | 151 kts | 193° |
| 2026-05-05 07:02 | 13.67073 | 100.75556 | 95 ft | 179 kts | 195° |
| 2026-05-05 07:03 | 13.65873 | 100.75215 | 750 ft | 176 kts | 196° |
| 2026-05-05 07:03 | 13.64695 | 100.74939 | 1403 ft | 175 kts | 181° |
| 2026-05-05 07:03 | 13.62979 | 100.75013 | 1662 ft | 196 kts | 177° |
| 2026-05-05 07:03 | 13.62049 | 100.75085 | 1760 ft | 208 kts | 175° |
| 2026-05-05 07:04 | 13.60648 | 100.75586 | 1957 ft | 223 kts | 147° |
| 2026-05-05 07:04 | 13.59323 | 100.77348 | 2164 ft | 251 kts | 120° |
| 2026-05-05 07:04 | 13.58495 | 100.78978 | 2587 ft | 261 kts | 118° |
| 2026-05-05 07:04 | 13.57678 | 100.80657 | 3144 ft | 264 kts | 115° |
| 2026-05-05 07:05 | 13.57313 | 100.81875 | 3509 ft | 266 kts | 100° |
| 2026-05-05 07:05 | 13.57187 | 100.83743 | 4153 ft | 264 kts | 92° |
| 2026-05-05 07:05 | 13.57185 | 100.85624 | 4834 ft | 262 kts | 91° |
| 2026-05-05 07:05 | 13.57189 | 100.87504 | 5369 ft | 265 kts | 91° |
| 2026-05-05 07:06 | 13.57186 | 100.89420 | 5848 ft | 270 kts | 91° |
| 2026-05-05 07:06 | 13.57174 | 100.91990 | 6576 ft | 272 kts | 91° |
| 2026-05-05 07:06 | 13.57166 | 100.93302 | 6958 ft | 272 kts | 92° |
| 2026-05-05 07:06 | 13.57152 | 100.95260 | 7446 ft | 275 kts | 91° |
| 2026-05-05 07:07 | 13.57138 | 100.97219 | 7899 ft | 279 kts | 92° |
| 2026-05-05 07:07 | 13.57123 | 100.99216 | 8466 ft | 279 kts | 92° |
| 2026-05-05 07:07 | 13.57133 | 101.01221 | 8959 ft | 283 kts | 88° |
| 2026-05-05 07:07 | 13.57480 | 101.03219 | 9387 ft | 288 kts | 73° |
| 2026-05-05 07:08 | 13.58369 | 101.05066 | 9923 ft | 289 kts | 60° |
| 2026-05-05 07:08 | 13.59482 | 101.06820 | 10238 ft | 299 kts | 58° |
| 2026-05-05 07:08 | 13.60668 | 101.08632 | 10417 ft | 312 kts | 58° |
| 2026-05-05 07:08 | 13.61906 | 101.10527 | 10572 ft | 326 kts | 58° |